createdAt,value
2023-09-13T00:15:38.980Z,76.3
2023-09-13T00:16:54.315Z,76.3
2023-09-13T00:18:01.421Z,76.3
2023-09-13T00:57:55.512Z,76.3
2023-09-13T00:59:10.660Z,76.8
2023-09-13T01:00:51.728Z,76.8
2023-09-13T01:02:09.569Z,76.8
2023-09-13T01:03:13.912Z,76.8
2023-09-13T01:06:09.326Z,76.8
2023-09-13T01:07:16.507Z,76.8
2023-09-13T01:08:25.814Z,76.8
2023-09-13T01:09:44.205Z,76.8
2023-09-13T01:10:52.988Z,76.8
2023-09-13T01:11:54.139Z,76.8
2023-09-13T01:13:10.292Z,76.8
2023-09-13T01:14:37.154Z,76.9
2023-09-13T01:15:54.341Z,76.9
2023-09-13T01:17:00.943Z,76.9
2023-09-13T01:18:45.612Z,76.9
2023-09-13T01:20:02.114Z,77
2023-09-13T01:21:37.589Z,77
2023-09-13T01:22:43.936Z,77
2023-09-13T01:24:03.159Z,77.1
2023-09-13T01:25:13.344Z,77.1
2023-09-13T01:26:47.191Z,77.1
2023-09-13T01:27:54.331Z,77.2
2023-09-13T01:29:03.531Z,77.2
2023-09-13T01:30:15.048Z,77.3
2023-09-13T02:11:04.578Z,78.1
2023-09-13T02:12:11.660Z,78.1
2023-09-13T02:13:24.171Z,78.1
2023-09-13T02:14:38.674Z,78.2
2023-09-13T02:16:19.013Z,78.2
2023-09-13T02:17:40.665Z,78.2
2023-09-13T02:18:57.850Z,78.3
2023-09-13T02:20:19.401Z,78.3
2023-09-13T02:21:28.239Z,78.4
2023-09-13T02:22:53.107Z,78.4
2023-09-13T02:24:04.477Z,78.4
2023-09-13T02:25:22.167Z,78.5
2023-09-13T02:26:55.876Z,78.5
2023-09-13T02:28:10.911Z,78.6
2023-09-13T02:29:19.041Z,78.6
2023-09-13T02:30:25.389Z,78.7
2023-09-13T02:31:51.461Z,78.7
2023-09-13T02:33:18.711Z,78.8
2023-09-13T02:35:31.911Z,78.8
2023-09-13T02:36:38.018Z,78.9
2023-09-13T02:38:56.970Z,78.9
2023-09-13T02:40:10.406Z,79
2023-09-13T02:41:31.354Z,79
2023-09-13T02:42:35.641Z,79
2023-09-13T02:43:41.967Z,79
2023-09-13T02:45:03.616Z,79
2023-09-13T02:46:09.916Z,79.1
2023-09-13T02:48:47.272Z,79.2
2023-09-13T02:50:01.967Z,79.2
2023-09-13T02:51:10.846Z,79.3
2023-09-13T02:52:19.372Z,79.3
2023-09-13T02:53:25.897Z,79.4
2023-09-13T02:56:26.519Z,79.4
2023-09-13T02:57:36.452Z,79.4
2023-09-13T02:58:52.094Z,79.5
2023-09-13T02:59:53.233Z,79.5
2023-09-13T03:01:27.478Z,79.5
2023-09-13T03:02:45.794Z,79.5
2023-09-13T03:03:48.135Z,79.5
2023-09-13T03:04:49.555Z,79.4
2023-09-13T03:05:50.690Z,79.4
2023-09-13T03:06:51.952Z,79.4
2023-09-13T03:07:53.334Z,79.4
2023-09-13T03:08:57.449Z,79.4
2023-09-13T03:09:58.756Z,79.4
2023-09-13T03:11:00.072Z,79.4
2023-09-13T03:12:03.564Z,79.4
2023-09-13T03:13:04.903Z,79.4
2023-09-13T03:14:06.354Z,79.4
2023-09-13T03:15:13.287Z,79.4
2023-09-13T03:16:14.757Z,79.4
2023-09-13T03:17:16.184Z,79.4
2023-09-13T03:18:17.491Z,79.5
2023-09-13T03:19:21.069Z,79.5
2023-09-13T03:20:25.107Z,79.5
2023-09-13T03:21:30.180Z,79.5
2023-09-13T03:22:31.311Z,79.5
2023-09-13T03:23:32.481Z,79.5
2023-09-13T03:24:33.666Z,79.5
2023-09-13T03:25:34.840Z,79.5
2023-09-13T03:26:35.988Z,79.5
2023-09-13T03:27:37.187Z,79.5
2023-09-13T03:28:38.351Z,79.5
2023-09-13T03:29:41.702Z,79.6
2023-09-13T03:30:42.941Z,79.6
2023-09-13T03:31:44.514Z,79.6
2023-09-13T03:32:54.635Z,79.6
2023-09-13T03:33:56.000Z,79.6
2023-09-13T03:34:57.172Z,79.6
2023-09-13T03:36:01.339Z,79.6
2023-09-13T03:37:12.622Z,79.6
2023-09-13T03:38:13.795Z,79.6
2023-09-13T03:39:14.949Z,79.6
2023-09-13T03:40:18.434Z,79.6
2023-09-13T03:41:19.606Z,79.6
2023-09-13T03:43:38.366Z,79.6
2023-09-13T03:44:39.518Z,79.6
2023-09-13T03:45:40.715Z,79.6
2023-09-13T03:46:42.244Z,79.6
2023-09-13T03:47:43.648Z,79.6
2023-09-13T03:48:50.140Z,79.6
2023-09-13T03:49:54.021Z,79.6
2023-09-13T03:50:55.180Z,79.6
2023-09-13T03:51:58.999Z,79.6
2023-09-13T03:53:00.174Z,79.6
2023-09-13T03:54:04.048Z,79.6
2023-09-13T03:55:08.302Z,79.6
2023-09-13T03:56:12.531Z,79.7
2023-09-13T03:57:13.705Z,79.7
2023-09-13T03:58:14.946Z,79.7
2023-09-13T03:59:16.111Z,79.7
2023-09-13T04:00:20.017Z,79.7
2023-09-13T04:02:27.844Z,79.8
2023-09-13T04:03:29.058Z,79.8
2023-09-13T04:04:30.827Z,79.8
2023-09-13T04:05:32.287Z,79.8
2023-09-13T04:06:33.871Z,79.9
2023-09-13T04:07:37.947Z,79.9
2023-09-13T04:08:39.085Z,79.9
2023-09-13T04:09:40.244Z,79.9
2023-09-13T04:10:44.096Z,80
2023-09-13T04:11:45.241Z,80
2023-09-13T04:13:06.747Z,80
2023-09-13T04:14:07.910Z,80
2023-09-13T04:15:09.095Z,80
2023-09-13T04:16:13.102Z,80.1
2023-09-13T04:17:14.548Z,80.1
2023-09-13T04:18:15.890Z,80.1
2023-09-13T04:19:17.249Z,80.1
2023-09-13T04:20:18.446Z,80.2
2023-09-13T04:21:19.584Z,80.2
2023-09-13T04:22:20.870Z,80.2
2023-09-13T04:23:24.782Z,80.2
2023-09-13T04:24:26.130Z,80.3
2023-09-13T04:25:27.403Z,80.3
2023-09-13T04:26:31.496Z,80.3
2023-09-13T04:27:32.705Z,80.3
2023-09-13T04:28:34.066Z,80.4
2023-09-13T04:29:35.228Z,80.4
2023-09-13T04:30:36.402Z,80.4
2023-09-13T04:31:38.026Z,80.4
2023-09-13T04:32:42.048Z,80.5
2023-09-13T04:33:46.614Z,80.5
2023-09-13T04:34:50.667Z,80.5
2023-09-13T04:35:51.823Z,80.6
2023-09-13T04:36:53.091Z,80.6
2023-09-13T04:37:57.384Z,80.7
2023-09-13T04:38:58.591Z,80.7
2023-09-13T04:40:05.155Z,80.8
2023-09-13T04:41:06.314Z,80.8
2023-09-13T04:42:07.564Z,80.8
2023-09-13T04:43:11.283Z,80.9
2023-09-13T04:44:14.641Z,80.9
2023-09-13T04:45:15.799Z,80.9
2023-09-13T04:46:24.640Z,81
2023-09-13T04:47:25.917Z,81
2023-09-13T04:48:27.134Z,81.1
2023-09-13T04:49:31.160Z,81.2
2023-09-13T04:50:38.406Z,81.2
2023-09-13T04:52:52.802Z,81.2
2023-09-13T04:54:06.035Z,81.3
2023-09-13T04:55:10.207Z,81.3
2023-09-13T04:56:22.916Z,81.3
2023-09-13T05:02:40.987Z,81.4
2023-09-13T05:03:56.612Z,81.5
2023-09-13T05:06:10.126Z,81.6
2023-09-13T05:07:11.461Z,81.6
2023-09-13T05:08:25.948Z,81.6
2023-09-13T05:09:29.251Z,81.6
2023-09-13T05:10:30.505Z,81.6
2023-09-13T05:12:48.640Z,81.6
2023-09-13T05:13:55.020Z,81.7
2023-09-13T05:15:06.633Z,81.7
2023-09-13T05:16:10.940Z,81.7
2023-09-13T05:18:40.736Z,81.7
2023-09-13T05:19:47.691Z,81.7
2023-09-13T05:21:00.978Z,81.7
2023-09-13T05:22:06.746Z,81.7
2023-09-13T05:23:10.063Z,81.7
2023-09-13T05:24:16.022Z,81.7
2023-09-13T05:25:20.239Z,81.7
2023-09-13T05:26:22.190Z,81.7
2023-09-13T05:27:44.383Z,81.8
2023-09-13T05:28:48.338Z,81.8
2023-09-13T05:29:49.532Z,81.8
2023-09-13T05:30:53.731Z,81.9
2023-09-13T05:32:07.094Z,81.9
2023-09-13T05:33:14.381Z,81.9
2023-09-13T05:34:18.719Z,82
2023-09-13T05:35:23.042Z,82
2023-09-13T05:36:28.228Z,82.1
2023-09-13T05:37:38.505Z,82.1
2023-09-13T05:38:39.681Z,82.2
2023-09-13T05:39:55.533Z,82.2
2023-09-13T05:41:01.886Z,82.3
2023-09-13T05:42:09.099Z,82.3
2023-09-13T05:43:15.355Z,82.4
2023-09-13T05:44:40.138Z,82.4
2023-09-13T05:45:44.537Z,82.5
2023-09-13T05:46:51.713Z,82.5
2023-09-13T05:47:56.209Z,82.6
2023-09-13T05:49:50.020Z,82.6
2023-09-13T05:51:00.208Z,82.8
2023-09-13T05:52:01.373Z,82.8
2023-09-13T05:53:10.081Z,82.9
2023-09-13T05:54:14.190Z,83
2023-09-13T05:55:20.571Z,83
2023-09-13T05:56:38.844Z,83.1
2023-09-13T05:57:39.982Z,83.1
2023-09-13T05:58:50.202Z,83.1
2023-09-13T05:59:56.706Z,83.2
2023-09-13T06:01:05.569Z,83.2
2023-09-13T06:02:11.972Z,83.2
2023-09-13T06:03:16.412Z,83.2
2023-09-13T06:04:20.825Z,83.2
2023-09-13T06:05:21.979Z,83.2
2023-09-13T06:06:27.986Z,83.2
2023-09-13T06:07:29.378Z,83.3
2023-09-13T06:08:30.571Z,83.2
2023-09-13T06:09:31.775Z,83.2
2023-09-13T06:10:33.069Z,83.2
2023-09-13T06:11:34.311Z,83.2
2023-09-13T06:12:35.469Z,83.2
2023-09-13T06:13:36.734Z,83.2
2023-09-13T06:14:42.756Z,83.1
2023-09-13T06:16:50.486Z,83
2023-09-13T06:19:03.061Z,83
2023-09-13T06:20:31.280Z,82.9
2023-09-13T06:21:35.602Z,82.9
2023-09-13T06:23:53.345Z,82.7
2023-09-13T06:24:57.453Z,82.6
2023-09-13T06:27:27.667Z,82.6
2023-09-13T06:28:29.094Z,82.6
2023-09-13T06:29:42.522Z,82.6
2023-09-13T06:31:06.132Z,82.6
2023-09-13T06:32:45.748Z,82.5
2023-09-13T06:33:58.602Z,82.4
2023-09-13T06:35:17.760Z,82.4
2023-09-13T06:37:29.625Z,82.3
2023-09-13T06:38:42.009Z,82.2
2023-09-13T06:39:47.195Z,82.2
2023-09-13T06:40:58.901Z,82.1
2023-09-13T06:42:31.474Z,82
2023-09-13T06:43:38.292Z,82
2023-09-13T06:45:27.812Z,81.9
2023-09-13T06:47:20.268Z,81.8
2023-09-13T06:48:37.569Z,81.7
2023-09-13T06:49:41.794Z,81.7
2023-09-13T06:51:33.198Z,81.6
2023-09-13T06:53:48.879Z,81.5
2023-09-13T06:55:03.725Z,81.3
2023-09-13T06:56:14.030Z,81.3
2023-09-13T06:57:46.615Z,81.2
2023-09-13T06:58:54.732Z,81.2
2023-09-13T07:00:39.620Z,81.1
2023-09-13T07:04:13.102Z,80.9
2023-09-13T07:06:33.020Z,80.7
2023-09-13T07:07:37.538Z,80.7
2023-09-13T07:09:01.137Z,80.6
2023-09-13T07:10:10.942Z,80.6
2023-09-13T07:12:29.560Z,80.5
2023-09-13T07:13:30.874Z,80.4
2023-09-13T07:14:43.792Z,80.4
2023-09-13T07:16:08.955Z,80.3
2023-09-13T07:17:10.372Z,80.3
2023-09-13T07:18:14.718Z,80.2
2023-09-13T07:19:15.920Z,80.2
2023-09-13T07:20:19.655Z,80.1
2023-09-13T07:21:25.648Z,80
2023-09-13T07:22:26.932Z,80
2023-09-13T07:23:28.373Z,79.9
2023-09-13T07:24:37.568Z,79.8
2023-09-13T07:25:44.318Z,79.7
2023-09-13T07:26:45.631Z,79.6
2023-09-13T07:27:49.758Z,79.5
2023-09-13T07:28:51.099Z,79.5
2023-09-13T07:29:52.266Z,79.5
2023-09-13T07:30:56.417Z,79.6
2023-09-13T07:32:00.580Z,79.7
2023-09-13T07:33:02.012Z,79.7
2023-09-13T07:34:03.273Z,79.6
2023-09-13T07:35:04.672Z,79.6
2023-09-13T07:36:10.624Z,79.5
2023-09-13T07:37:19.446Z,79.4
2023-09-13T07:38:45.400Z,79.4
2023-09-13T07:40:09.247Z,79.3
2023-09-13T07:41:19.601Z,79.3
2023-09-13T07:42:29.237Z,79.3
2023-09-13T07:44:16.116Z,79.3
2023-09-13T07:45:20.018Z,79.3
2023-09-13T07:46:21.311Z,79.2
2023-09-13T07:47:27.345Z,79.2
2023-09-13T07:48:31.255Z,79.1
2023-09-13T07:49:34.855Z,79
2023-09-13T07:50:58.079Z,78.9
2023-09-13T07:51:59.248Z,78.9
2023-09-13T07:53:11.191Z,78.9
2023-09-13T07:54:15.938Z,78.9
2023-09-13T07:55:17.980Z,78.9
2023-09-13T07:56:19.224Z,78.9
2023-09-13T07:57:25.240Z,78.8
2023-09-13T07:58:29.401Z,78.8
2023-09-13T07:59:30.931Z,78.8
2023-09-13T08:00:32.238Z,78.7
2023-09-13T08:01:39.166Z,78.7
2023-09-13T08:02:43.380Z,78.6
2023-09-13T08:03:53.640Z,78.6
2023-09-13T08:04:57.391Z,78.6
2023-09-13T08:06:00.811Z,78.6
2023-09-13T08:07:01.971Z,78.6
2023-09-13T08:08:03.256Z,78.5
2023-09-13T08:09:10.487Z,78.5
2023-09-13T08:10:14.614Z,78.4
2023-09-13T08:11:18.541Z,78.3
2023-09-13T08:12:19.711Z,78.2
2023-09-13T08:13:25.696Z,78.1
2023-09-13T08:14:32.186Z,78.1
2023-09-13T08:15:50.117Z,78
2023-09-13T08:16:59.312Z,78.1
2023-09-13T08:18:03.401Z,78.1
2023-09-13T08:19:11.894Z,78.2
2023-09-13T08:20:18.150Z,78.2
2023-09-13T08:21:20.134Z,78.2
2023-09-13T08:23:13.720Z,78.2
2023-09-13T09:03:55.693Z,75.2
2023-09-13T09:04:59.455Z,74.9
2023-09-13T09:06:08.989Z,74.7
2023-09-13T09:07:29.529Z,74.5
2023-09-13T09:08:30.676Z,74.3
2023-09-13T09:09:31.900Z,74.2
2023-09-13T09:10:36.192Z,74
2023-09-13T09:11:37.390Z,73.9
2023-09-13T09:12:38.560Z,73.7
2023-09-13T09:14:00.862Z,73.6
2023-09-13T09:15:02.050Z,73.2
2023-09-13T09:16:03.435Z,72.9
2023-09-13T09:17:10.509Z,71.9
2023-09-13T09:18:14.857Z,71.5
2023-09-13T09:19:16.116Z,71.4
2023-09-13T09:20:17.276Z,71.3
2023-09-13T09:21:21.332Z,71.2
2023-09-13T09:22:22.516Z,71.1
2023-09-13T09:23:44.945Z,71.1
2023-09-13T09:24:51.300Z,71
2023-09-13T09:25:52.724Z,71
2023-09-13T09:26:56.077Z,70.9
2023-09-13T09:27:59.125Z,70.7
2023-09-13T09:29:03.208Z,70.3
2023-09-13T09:30:04.457Z,70.2
2023-09-13T09:31:06.210Z,69.9
2023-09-13T09:32:08.108Z,69.6
2023-09-13T09:33:13.306Z,69.6
2023-09-13T09:34:19.349Z,68.4
2023-09-13T09:35:20.960Z,68
2023-09-13T09:38:38.323Z,67.3
2023-09-13T09:40:25.768Z,66.8
2023-09-13T09:42:09.560Z,66
2023-09-13T09:43:10.782Z,66.2
2023-09-13T09:44:31.987Z,66.2
2023-09-13T09:45:43.120Z,65.3
2023-09-13T09:46:45.289Z,65.1
2023-09-13T09:47:51.364Z,65.4
2023-09-13T09:50:06.372Z,64
2023-09-13T09:51:10.529Z,63.2
2023-09-13T09:52:27.962Z,63.1
2023-09-13T09:53:29.187Z,62.9
2023-09-13T09:54:30.330Z,62.9
2023-09-13T09:55:39.132Z,63
2023-09-13T09:57:04.093Z,62.5
2023-09-13T09:58:05.292Z,61.1
2023-09-13T09:59:17.821Z,60.6
2023-09-13T10:00:47.327Z,60.6
2023-09-13T10:01:51.015Z,59.5
2023-09-13T10:03:17.599Z,59
2023-09-13T10:04:29.046Z,58.5
2023-09-13T10:06:50.700Z,57.9
2023-09-13T10:07:51.991Z,58.3
2023-09-13T10:08:53.959Z,58.8
2023-09-13T10:10:00.215Z,57.4
2023-09-13T10:11:09.076Z,57.7
2023-09-13T10:12:10.582Z,57.1
2023-09-13T10:13:20.374Z,56.7
2023-09-13T10:14:32.136Z,57.3
2023-09-13T10:15:46.385Z,56.4
2023-09-13T10:16:57.724Z,55.5
2023-09-13T10:18:06.343Z,54.9
2023-09-13T10:20:00.712Z,54.4
2023-09-13T10:22:15.755Z,52.4
2023-09-13T10:23:17.026Z,53.2
2023-09-13T10:24:25.271Z,53.4
2023-09-13T10:25:34.081Z,53.5
2023-09-13T10:26:40.087Z,53.8
2023-09-13T10:27:41.264Z,54.3
2023-09-13T10:28:46.699Z,53
2023-09-13T10:29:48.237Z,51.8
2023-09-13T10:31:07.764Z,51.7
2023-09-13T10:32:19.261Z,52.6
2023-09-13T10:33:36.272Z,53
2023-09-13T10:34:56.228Z,53
2023-09-13T10:36:08.519Z,53.3
2023-09-13T11:16:57.708Z,49.2
2023-09-13T11:17:59.159Z,49.3
2023-09-13T11:19:13.167Z,49.3
2023-09-13T11:21:18.983Z,49.3
2023-09-13T11:22:20.145Z,49.5
2023-09-13T11:23:35.611Z,49.6
2023-09-13T11:27:41.545Z,48.5
2023-09-13T11:30:37.231Z,48.4
2023-09-13T11:31:38.466Z,48.1
2023-09-13T11:32:42.767Z,49
2023-09-13T11:33:46.057Z,49.5
2023-09-13T11:34:51.180Z,50.3
2023-09-13T11:35:52.313Z,49.4
2023-09-13T11:36:53.499Z,48.6
2023-09-13T11:37:54.775Z,47.8
2023-09-13T11:39:06.199Z,48.7
2023-09-13T11:40:13.799Z,49.3
2023-09-13T11:42:36.343Z,49.8
2023-09-13T11:43:37.674Z,49.8
2023-09-13T11:45:28.377Z,49.9
2023-09-13T11:46:33.616Z,50
2023-09-13T11:47:35.438Z,50.1
2023-09-13T11:49:00.623Z,50.2
2023-09-13T11:50:15.801Z,50.2
2023-09-13T11:51:24.338Z,50.2
2023-09-13T11:52:48.426Z,50.1
2023-09-13T11:53:51.208Z,50
2023-09-13T11:55:34.506Z,50.1
2023-09-13T11:56:49.977Z,50.1
2023-09-13T11:58:03.862Z,50.5
2023-09-13T11:59:14.792Z,49.7
2023-09-13T12:00:39.790Z,49.6
2023-09-13T12:01:44.492Z,49.2
2023-09-13T12:02:54.330Z,49.6
2023-09-13T12:05:08.295Z,50
2023-09-13T12:07:32.535Z,48.6
2023-09-13T12:08:44.508Z,48.3
2023-09-13T12:09:55.370Z,48.1
2023-09-13T12:11:27.330Z,47.8
2023-09-13T12:13:19.105Z,47.5
2023-09-13T12:15:12.428Z,47.4
2023-09-13T12:16:20.219Z,46.4
2023-09-13T12:17:23.765Z,47.4
2023-09-13T12:18:29.004Z,47.9
2023-09-13T12:19:41.698Z,48.3
2023-09-13T12:20:45.160Z,48.5
2023-09-13T12:22:31.512Z,48.6
2023-09-13T12:23:32.747Z,48.8
2023-09-13T12:24:34.239Z,48.9
2023-09-13T12:25:57.611Z,49.1
2023-09-13T12:26:58.772Z,49.4
2023-09-13T12:29:13.698Z,49.7
2023-09-13T12:30:26.677Z,49.8
2023-09-13T12:31:42.042Z,49.7
2023-09-13T12:32:43.322Z,49.7
2023-09-13T12:33:44.747Z,49.8
2023-09-13T12:35:06.845Z,49.9
2023-09-13T12:36:11.223Z,49.9
2023-09-13T12:37:22.663Z,50
2023-09-13T12:39:09.139Z,50
2023-09-13T12:40:15.459Z,50.1
2023-09-13T12:41:23.872Z,49.5
2023-09-13T12:42:25.173Z,50
2023-09-13T12:43:26.344Z,49.5
2023-09-13T12:44:30.390Z,49.9
2023-09-13T12:45:31.757Z,50.1
2023-09-13T12:46:33.147Z,50.3
2023-09-13T12:47:49.058Z,50.4
2023-09-13T12:48:53.705Z,50.5
2023-09-13T12:49:54.926Z,50.6
2023-09-13T12:50:56.123Z,50.6
2023-09-13T12:52:01.754Z,50.6
2023-09-13T12:53:05.891Z,50.7
2023-09-13T12:54:07.191Z,50.7
2023-09-13T12:55:16.340Z,50.8
2023-09-13T12:56:17.498Z,50.9
2023-09-13T12:57:18.767Z,51
2023-09-13T12:58:22.937Z,51.1
2023-09-13T12:59:32.866Z,51.8
2023-09-13T13:00:51.781Z,50.9
2023-09-13T13:01:58.930Z,50.8
2023-09-13T13:03:03.177Z,51
2023-09-13T13:04:11.748Z,51.2
2023-09-13T13:05:15.564Z,51.3
2023-09-13T13:06:16.761Z,52.1
2023-09-13T13:07:20.687Z,51.5
2023-09-13T13:08:21.909Z,50.9
2023-09-13T13:09:26.208Z,51.5
2023-09-13T13:10:34.925Z,51.2
2023-09-13T13:11:39.039Z,51.6
2023-09-13T13:13:01.272Z,52
2023-09-13T13:14:08.517Z,52
2023-09-13T13:15:14.615Z,52.3
2023-09-13T13:16:15.941Z,52.5
2023-09-13T13:17:17.285Z,52.7
2023-09-13T13:18:21.182Z,52.8
2023-09-13T13:19:26.553Z,52.9
2023-09-13T13:22:16.937Z,53.1
2023-09-13T13:23:18.291Z,53.3
2023-09-13T13:24:19.579Z,53.4
2023-09-13T13:25:24.107Z,53.6
2023-09-13T13:26:25.424Z,53.6
2023-09-13T13:27:26.625Z,53.7
2023-09-13T13:28:27.782Z,53.8
2023-09-13T13:29:28.961Z,53.9
2023-09-13T13:30:31.275Z,54.1
2023-09-13T13:31:32.497Z,54.2
2023-09-13T13:32:33.794Z,54.4
2023-09-13T13:33:37.297Z,54.5
2023-09-13T13:34:44.471Z,54.6
2023-09-13T13:35:48.379Z,54.7
2023-09-13T13:36:49.674Z,54.9
2023-09-13T13:37:50.861Z,55
2023-09-13T13:40:15.458Z,55.1
2023-09-13T13:41:18.975Z,55.2
2023-09-13T13:42:23.110Z,55.2
2023-09-13T13:43:24.267Z,55.3
2023-09-13T13:44:30.011Z,55.4
2023-09-13T13:45:34.377Z,55.4
2023-09-13T13:46:35.626Z,55.5
2023-09-13T13:47:36.912Z,55.6
2023-09-13T13:48:40.931Z,55.7
2023-09-13T13:49:42.096Z,55.7
2023-09-13T13:50:48.070Z,55.4
2023-09-13T13:51:49.405Z,55.4
2023-09-13T13:52:50.625Z,55.9
2023-09-13T13:53:54.786Z,55.8
2023-09-13T13:54:55.978Z,56.1
2023-09-13T13:55:57.301Z,56
2023-09-13T13:57:01.283Z,56
2023-09-13T13:58:05.566Z,55.7
2023-09-13T13:59:16.765Z,56.2
2023-09-13T14:00:18.021Z,56.1
2023-09-13T14:01:19.251Z,56
2023-09-13T14:02:23.213Z,56
2023-09-13T14:03:27.761Z,56.4
2023-09-13T14:04:29.136Z,56.6
2023-09-13T14:05:33.303Z,56.8
2023-09-13T14:06:37.737Z,57
2023-09-13T14:07:39.025Z,57.1
2023-09-13T14:08:47.714Z,57.3
2023-09-13T14:09:48.985Z,57.3
2023-09-13T14:10:53.224Z,57.4
2023-09-13T14:13:03.539Z,57.7
2023-09-13T14:14:54.070Z,57.8
2023-09-13T14:16:00.442Z,58
2023-09-13T14:17:04.749Z,58.1
2023-09-13T14:18:06.025Z,58.2
2023-09-13T14:19:10.328Z,58.3
2023-09-13T14:20:29.015Z,58.4
2023-09-13T14:21:33.271Z,58.5
2023-09-13T14:22:37.205Z,58.7
2023-09-13T14:23:47.343Z,58.8
2023-09-13T14:24:48.870Z,59
2023-09-13T14:25:53.063Z,59.1
2023-09-13T14:26:57.219Z,59.2
2023-09-13T14:28:11.785Z,59.4
2023-09-13T14:29:13.072Z,59.5
2023-09-13T14:30:19.482Z,59.7
2023-09-13T14:31:26.436Z,59.8
2023-09-13T14:32:27.740Z,60
2023-09-13T14:33:31.970Z,60.1
2023-09-13T14:34:33.242Z,60.3
2023-09-13T14:35:40.554Z,60.4
2023-09-13T14:36:59.720Z,60.6
2023-09-13T14:38:03.504Z,60.8
2023-09-13T14:39:04.910Z,61
2023-09-13T14:40:08.747Z,61.1
2023-09-13T14:41:15.256Z,61.3
2023-09-13T14:43:22.784Z,61.7
2023-09-13T14:44:32.648Z,61.8
2023-09-13T14:45:34.095Z,62
2023-09-13T14:46:38.891Z,62.2
2023-09-13T14:47:40.142Z,62.4
2023-09-13T14:48:49.139Z,62.4
2023-09-13T14:50:56.731Z,62.4
2023-09-13T14:51:57.872Z,62.6
2023-09-13T14:52:59.100Z,62.4
2023-09-13T14:54:08.530Z,62.1
2023-09-13T14:55:09.702Z,62.3
2023-09-13T14:56:16.627Z,62.3
2023-09-13T14:57:22.717Z,62.5
2023-09-13T14:58:26.238Z,62.6
2023-09-13T14:59:27.551Z,62.7
2023-09-13T15:00:30.880Z,62.9
2023-09-13T15:01:34.952Z,63.1
2023-09-13T15:02:38.730Z,63.4
2023-09-13T15:03:40.251Z,63.6
2023-09-13T15:04:44.368Z,63.7
2023-09-13T15:05:45.555Z,63.9
2023-09-13T15:06:46.948Z,63.9
2023-09-13T15:07:48.374Z,63.9
2023-09-13T15:08:58.595Z,64
2023-09-13T15:10:03.126Z,64.1
2023-09-13T15:11:04.285Z,64.2
2023-09-13T15:13:15.682Z,64.3
2023-09-13T15:14:24.859Z,64.2
2023-09-13T15:15:26.208Z,64
2023-09-13T15:16:30.433Z,64.1
2023-09-13T15:17:32.098Z,64.1
2023-09-13T15:18:33.301Z,64.2
2023-09-13T15:19:37.517Z,64.3
2023-09-13T15:20:41.569Z,64.4
2023-09-13T15:21:48.477Z,64.6
2023-09-13T15:24:06.766Z,64.9
2023-09-13T15:25:07.942Z,65
2023-09-13T15:26:11.528Z,65.2
2023-09-13T15:27:12.852Z,65.3
2023-09-13T15:28:14.131Z,65.4
2023-09-13T15:29:15.343Z,65.5
2023-09-13T15:30:19.881Z,65.6
2023-09-13T15:31:51.050Z,65.8
2023-09-13T15:33:06.140Z,65.9
2023-09-13T15:34:07.478Z,66.1
2023-09-13T15:35:11.645Z,66.2
2023-09-13T15:36:13.053Z,66.3
2023-09-13T15:37:14.233Z,66.4
2023-09-13T15:38:15.401Z,66.5
2023-09-13T15:39:18.895Z,66.6
2023-09-13T15:40:20.055Z,66.7
2023-09-13T15:41:28.539Z,66.7
2023-09-13T15:42:34.662Z,66.8
2023-09-13T15:43:40.680Z,66.8
2023-09-13T15:44:49.637Z,66.9
2023-09-13T15:45:54.073Z,67
2023-09-13T15:47:14.336Z,67
2023-09-13T15:48:23.661Z,67.1
2023-09-13T15:49:25.078Z,67.2
2023-09-13T15:50:31.133Z,67.2
2023-09-13T15:51:39.053Z,67.2
2023-09-13T15:52:53.493Z,67.3
2023-09-13T15:53:57.539Z,67.3
2023-09-13T15:56:31.984Z,67.4
2023-09-13T15:57:40.772Z,67.5
2023-09-13T15:58:50.345Z,67.5
2023-09-13T15:59:57.304Z,67.6
2023-09-13T16:01:08.971Z,67.6
2023-09-13T16:02:10.462Z,67.7
2023-09-13T16:03:14.064Z,67.8
2023-09-13T16:04:38.985Z,67.8
2023-09-13T16:05:45.802Z,67.9
2023-09-13T16:06:47.204Z,67.9
2023-09-13T16:09:09.210Z,67.9
2023-09-13T16:10:15.513Z,68.1
2023-09-13T16:12:08.363Z,68.2
2023-09-13T16:13:42.158Z,68.3
2023-09-13T16:14:45.654Z,68.3
2023-09-13T16:17:40.123Z,68.4
2023-09-13T16:18:41.645Z,68.5
2023-09-13T16:21:12.700Z,68.6
2023-09-13T16:22:22.648Z,68.7
2023-09-13T16:23:31.157Z,68.8
2023-09-13T16:24:40.491Z,69
2023-09-13T16:25:49.594Z,69.1
2023-09-13T16:26:58.705Z,69.2
2023-09-13T16:28:05.505Z,69.3
2023-09-13T16:30:30.947Z,69.5
2023-09-13T16:31:44.858Z,69.6
2023-09-13T16:34:14.130Z,69.6
2023-09-13T16:35:18.344Z,69.6
2023-09-13T16:36:40.140Z,69.7
2023-09-13T16:37:41.547Z,69.8
2023-09-13T16:41:29.904Z,70.2
2023-09-13T16:42:40.066Z,70.4
2023-09-13T16:43:54.057Z,70.5
2023-09-13T16:44:58.147Z,70.6
2023-09-13T16:47:16.302Z,70.7
2023-09-13T16:48:58.704Z,70.8
2023-09-13T16:50:07.557Z,70.9
2023-09-13T16:51:11.878Z,71
2023-09-13T16:52:40.255Z,71
2023-09-13T16:53:52.558Z,71.1
2023-09-13T16:54:56.857Z,71.2
2023-09-13T16:56:03.321Z,71.3
2023-09-13T16:57:12.595Z,71.4
2023-09-13T16:58:27.486Z,71.5
2023-09-13T16:59:31.618Z,71.6
2023-09-13T17:02:03.688Z,71.9
2023-09-13T17:03:09.354Z,71.9
2023-09-13T17:04:16.429Z,72
2023-09-13T17:05:26.617Z,72.1
2023-09-13T17:07:45.750Z,72.2
2023-09-13T17:08:54.578Z,72.3
2023-09-13T17:10:02.021Z,72.4
2023-09-13T17:11:10.256Z,72.5
2023-09-13T17:12:23.953Z,72.6
2023-09-13T17:14:12.400Z,72.7
2023-09-13T17:16:37.030Z,72.9
2023-09-13T17:20:21.706Z,73.2
2023-09-13T17:24:22.560Z,73.4
2023-09-13T17:26:39.298Z,73.6
2023-09-13T17:30:13.700Z,73.8
2023-09-13T17:31:15.180Z,73.8
2023-09-13T17:32:22.282Z,73.9
2023-09-13T17:38:31.764Z,74.2
2023-09-13T18:18:18.451Z,74.3
2023-09-13T18:19:28.992Z,76
2023-09-13T18:20:59.322Z,76
2023-09-13T18:22:03.145Z,76.1
2023-09-13T18:23:07.211Z,76.1
2023-09-13T18:30:37.227Z,76.1
2023-09-13T18:42:02.395Z,76.6
2023-09-13T18:43:08.988Z,76.6
2023-09-13T18:46:42.508Z,76.7
2023-09-13T18:49:06.973Z,76.7
2023-09-13T18:50:15.730Z,76.8
2023-09-13T18:51:16.897Z,76.8
2023-09-13T18:52:48.684Z,76.8
2023-09-13T18:53:49.834Z,76.8
2023-09-13T18:55:02.798Z,76.8
2023-09-13T18:56:29.918Z,76.8
2023-09-13T18:57:40.390Z,76.9
2023-09-13T18:58:54.428Z,76.9
2023-09-13T19:00:07.919Z,76.9
2023-09-13T19:02:20.938Z,77
2023-09-13T19:06:22.702Z,77
2023-09-13T19:07:36.699Z,77.1
2023-09-13T19:09:01.759Z,77.1
2023-09-13T19:11:11.430Z,77.2
2023-09-13T19:13:33.059Z,77.3
2023-09-13T19:15:00.189Z,77.3
2023-09-13T19:16:07.326Z,77.3
2023-09-13T19:17:16.508Z,77.4
2023-09-13T19:19:05.573Z,77.4
2023-09-13T19:20:23.373Z,77.4
2023-09-13T19:23:34.893Z,77.5
2023-09-13T19:24:59.976Z,77.5
2023-09-13T19:26:06.189Z,77.5
2023-09-13T19:27:57.277Z,77.5
2023-09-13T19:29:47.622Z,77.5
2023-09-13T19:31:12.335Z,77.5
2023-09-13T19:32:23.909Z,77.5
2023-09-13T19:34:44.925Z,77.5
2023-09-13T19:37:09.702Z,77.5
2023-09-13T19:38:52.244Z,77.5
2023-09-13T19:39:59.494Z,77.6
2023-09-13T19:41:24.226Z,77.6
2023-09-13T19:42:48.144Z,77.6
2023-09-13T19:43:59.477Z,77.6
2023-09-13T19:45:05.749Z,77.6
2023-09-13T19:46:24.885Z,77.6
2023-09-13T19:48:13.944Z,77.6
2023-09-13T19:49:25.272Z,77.7
2023-09-13T19:50:57.771Z,77.7
2023-09-13T19:51:59.020Z,77.7
2023-09-13T19:54:37.713Z,77.7
2023-09-13T19:55:39.053Z,77.8
2023-09-13T19:57:01.078Z,77.8
2023-09-13T19:58:07.301Z,77.9
2023-09-13T19:59:11.145Z,77.9
2023-09-13T20:00:43.864Z,77.9
2023-09-13T20:03:33.204Z,78
2023-09-13T20:04:56.270Z,78
2023-09-13T20:06:06.676Z,78
2023-09-13T20:07:10.184Z,78
2023-09-13T20:08:22.965Z,78
2023-09-13T20:09:29.737Z,78.1
2023-09-13T20:10:46.047Z,78.1
2023-09-13T20:11:52.056Z,78.1
2023-09-13T20:12:56.345Z,78.1
2023-09-13T20:14:07.592Z,78.1
2023-09-13T20:15:17.698Z,78.1
2023-09-13T20:16:31.054Z,78.2
2023-09-13T20:17:40.117Z,78.2
2023-09-13T20:20:04.524Z,78.3
2023-09-13T20:26:28.705Z,78.3
2023-09-13T20:31:33.343Z,78.6
2023-09-13T20:32:51.455Z,78.6
2023-09-13T20:33:58.557Z,78.6
2023-09-13T20:35:08.466Z,78.6
2023-09-13T20:36:12.394Z,78.6
2023-09-13T20:37:19.467Z,78.6
2023-09-13T20:38:58.469Z,78.5
2023-09-13T20:40:08.708Z,78.5
2023-09-13T20:41:19.997Z,78.5
2023-09-13T20:42:37.943Z,78.5
2023-09-13T20:44:47.080Z,78.5
2023-09-13T20:46:21.836Z,78.5
2023-09-13T20:47:38.813Z,78.5
2023-09-13T20:48:55.699Z,78.5
2023-09-13T20:50:20.059Z,78.5
2023-09-13T20:52:53.150Z,78.4
2023-09-13T20:53:54.412Z,78.4
2023-09-13T21:33:37.988Z,78.4
2023-09-13T21:35:04.171Z,79.1
2023-09-13T21:36:11.368Z,79.1
2023-09-13T21:37:20.046Z,79.1
2023-09-13T21:38:24.212Z,79.1
2023-09-13T21:39:31.433Z,79.1
2023-09-13T21:41:41.640Z,79.2
2023-09-13T21:42:42.934Z,79.2
2023-09-13T21:43:44.096Z,79.2
2023-09-13T21:44:45.264Z,79.2
2023-09-13T21:45:46.487Z,79.2
2023-09-13T21:46:47.759Z,79.2
2023-09-13T21:47:49.049Z,79.2